Maran Pythia — SVAQ5 — position and weather

sailwx.info

Track history (hours):
 
Tides and Currents Weather Stations Pressure Air Temp Water Temp Dewpoint Dewpoint Depression Visibility Wind Speed Wind Dir Waves Ship Positions

Maran Pythia

Last reported at 2015-Apr-30 19:33 UTC. Time now 2015-May-22 14:36 UTC.
Position N 02°60' E 100°49'.
Warning: this ship's position is 21 days out of date.

Length 275 m; draft 9.5 m.

Type: Tanker. MMSI: 240893000.

Date/timePositionNaut miles runAvg speedWind from/ knotsBaromVisibWave heightAir tempDewpointWater temp
2015-Apr-30 19:33N 02°60' E 100°49'1413.7
2015-Apr-30 18:33N 02°51' E 100°60'1914.6
2015-Apr-30 17:17N 02°42' E 101°16'7515.4
2015-Apr-30 12:24N 01°57' E 102°16'1213.7
2015-Apr-30 11:33N 01°52' E 102°27'1413.6
2015-Apr-30 10:33N 01°47' E 102°39'1614.0
2015-Apr-30 09:27N 01°40' E 102°53'5813.9
2015-Apr-30 05:19N 01°10' E 103°42'810.9
2015-Apr-30 04:33N 01°12' E 103°50'6 5.5
2015-Apr-30 03:23N 01°15' E 103°56'0 0.0
2015-Apr-30 02:32N 01°15' E 103°56'0 0.0
2015-Apr-30 01:32N 01°15' E 103°56'0 0.2
2015-Apr-30 00:26N 01°15' E 103°56'0 0.1
2015-Apr-29 23:23N 01°15' E 103°56'0 0.1
2015-Apr-29 22:29N 01°15' E 103°56'0 0.2
2015-Apr-29 21:26N 01°15' E 103°56'0 0.2
2015-Apr-29 20:32N 01°15' E 103°56'0 0.0
2015-Apr-29 19:32N 01°15' E 103°56'0 0.0
2015-Apr-29 18:29N 01°15' E 103°56'0 0.0
2015-Apr-29 17:23N 01°15' E 103°56'0 0.0
2015-Apr-29 16:23N 01°15' E 103°56'0 0.0
2015-Apr-29 15:29N 01°15' E 103°56'0 0.0
2015-Apr-29 14:23N 01°15' E 103°56'0 0.0
2015-Apr-29 13:29N 01°15' E 103°56'0 0.0
2015-Apr-29 12:32N 01°15' E 103°56'0 0.0
2015-Apr-29 11:29N 01°15' E 103°56'0 0.0
2015-Apr-29 10:23N 01°15' E 103°56'0 0.0
2015-Apr-29 09:20N 01°15' E 103°56'0 0.0
2015-Apr-29 08:29N 01°15' E 103°56'0 0.1
2015-Apr-29 07:32N 01°15' E 103°56'0 0.2
2015-Apr-29 06:20N 01°15' E 103°56'2 2.7
2015-Apr-29 05:33N 01°16' E 103°58'6 5.5
2015-Apr-29 04:33N 01°16' E 104°03'6 6.5
2015-Apr-29 03:33N 01°17' E 104°10'6 5.9
2015-Apr-29 02:33N 01°18' E 104°16'  
2015-Apr-23 16:07N 28°23' E 123°23'915.1
2015-Apr-23 15:30N 28°32' E 123°26'1415.1
2015-Apr-23 14:33N 28°46' E 123°28'3215.0
2015-Apr-23 12:26N 29°18' E 123°34'1315.4
2015-Apr-23 11:33N 29°31' E 123°37'1715.9
2015-Apr-23 10:30N 29°47' E 123°40'1515.7
2015-Apr-23 09:34N 30°02' E 123°43'1915.6
2015-Apr-23 08:21N 30°20' E 123°47'1415.3
2015-Apr-23 07:25N 30°35' E 123°48'1314.5
2015-Apr-23 06:32N 30°47' E 123°48'1814.0
2015-Apr-23 05:15N 31°05' E 123°49'1013.9
2015-Apr-23 04:33N 31°15' E 123°50'31913.7
2015-Apr-22 05:13N 35°55' E 120°46'1014.9
2015-Apr-22 04:33N 35°58' E 120°35'1514.7
2015-Apr-22 03:33N 36°02' E 120°17'  
Track history (hours):
 
Tides and Currents Weather Stations Pressure Air Temp Water Temp Dewpoint Dewpoint Depression Visibility Wind Speed Wind Dir Waves Ship Positions

Maran Pythia

Last reported at 2015-Apr-30 19:33 UTC. Time now 2015-May-22 14:36 UTC.
Position N 02°60' E 100°49'.
Warning: this ship's position is 21 days out of date.

Length 275 m; draft 9.5 m.

Type: Tanker. MMSI: 240893000.

Date/timePositionNaut miles runAvg speedWind from/ knotsBaromVisibWave heightAir tempDewpointWater temp
2015-Apr-30 19:33N 02°60' E 100°49'1413.7
2015-Apr-30 18:33N 02°51' E 100°60'1914.6
2015-Apr-30 17:17N 02°42' E 101°16'7515.4
2015-Apr-30 12:24N 01°57' E 102°16'1213.7
2015-Apr-30 11:33N 01°52' E 102°27'1413.6
2015-Apr-30 10:33N 01°47' E 102°39'1614.0
2015-Apr-30 09:27N 01°40' E 102°53'5813.9
2015-Apr-30 05:19N 01°10' E 103°42'810.9
2015-Apr-30 04:33N 01°12' E 103°50'6 5.5
2015-Apr-30 03:23N 01°15' E 103°56'0 0.0
2015-Apr-30 02:32N 01°15' E 103°56'0 0.0
2015-Apr-30 01:32N 01°15' E 103°56'0 0.2
2015-Apr-30 00:26N 01°15' E 103°56'0 0.1
2015-Apr-29 23:23N 01°15' E 103°56'0 0.1
2015-Apr-29 22:29N 01°15' E 103°56'0 0.2
2015-Apr-29 21:26N 01°15' E 103°56'0 0.2
2015-Apr-29 20:32N 01°15' E 103°56'0 0.0
2015-Apr-29 19:32N 01°15' E 103°56'0 0.0
2015-Apr-29 18:29N 01°15' E 103°56'0 0.0
2015-Apr-29 17:23N 01°15' E 103°56'0 0.0
2015-Apr-29 16:23N 01°15' E 103°56'0 0.0
2015-Apr-29 15:29N 01°15' E 103°56'0 0.0
2015-Apr-29 14:23N 01°15' E 103°56'0 0.0
2015-Apr-29 13:29N 01°15' E 103°56'0 0.0
2015-Apr-29 12:32N 01°15' E 103°56'0 0.0
2015-Apr-29 11:29N 01°15' E 103°56'0 0.0
2015-Apr-29 10:23N 01°15' E 103°56'0 0.0
2015-Apr-29 09:20N 01°15' E 103°56'0 0.0
2015-Apr-29 08:29N 01°15' E 103°56'0 0.1
2015-Apr-29 07:32N 01°15' E 103°56'0 0.2
2015-Apr-29 06:20N 01°15' E 103°56'2 2.7
2015-Apr-29 05:33N 01°16' E 103°58'6 5.5
2015-Apr-29 04:33N 01°16' E 104°03'6 6.5
2015-Apr-29 03:33N 01°17' E 104°10'6 5.9
2015-Apr-29 02:33N 01°18' E 104°16'  
2015-Apr-23 16:07N 28°23' E 123°23'915.1
2015-Apr-23 15:30N 28°32' E 123°26'1415.1
2015-Apr-23 14:33N 28°46' E 123°28'3215.0
2015-Apr-23 12:26N 29°18' E 123°34'1315.4
2015-Apr-23 11:33N 29°31' E 123°37'1715.9
2015-Apr-23 10:30N 29°47' E 123°40'1515.7
2015-Apr-23 09:34N 30°02' E 123°43'1915.6
2015-Apr-23 08:21N 30°20' E 123°47'1415.3
2015-Apr-23 07:25N 30°35' E 123°48'1314.5
2015-Apr-23 06:32N 30°47' E 123°48'1814.0
2015-Apr-23 05:15N 31°05' E 123°49'1013.9
2015-Apr-23 04:33N 31°15' E 123°50'31913.7
2015-Apr-22 05:13N 35°55' E 120°46'1014.9
2015-Apr-22 04:33N 35°58' E 120°35'1514.7
2015-Apr-22 03:33N 36°02' E 120°17'  

Dump ship's entire track history